Time;durP1;ratioP1;P1;durP2;ratioP2;P2;SDS_P1;SDS_P2;PMS_P1;PMS_P2;Temp;Humidity;BMP_temperature;BMP_pressure;BME280_temperature;BME280_humidity;BME280_pressure;Samples;Min_cycle;Max_cycle;Signal;HPM_P1;HPM_P2
2023/01/03 00:01:36;;;;;;;25.53;15.83;;;7.60;1.00;;;;;;4875444;29;20233;-70
2023/01/03 00:04:03;;;;;;;19.97;14.87;;;7.60;1.00;;;;;;4846697;29;20225;-65
2023/01/03 00:06:37;;;;;;;20.73;16.13;;;7.60;1.00;;;;;;4874689;29;20657;-64
2023/01/03 00:09:08;;;;;;;20.93;15.10;;;7.60;1.00;;;;;;4836747;29;20263;-63
2023/01/03 00:14:28;;;;;;;17.97;14.07;;;7.60;1.00;;;;;;4874478;29;20226;-66
2023/01/03 00:16:58;;;;;;;18.60;14.07;;;7.60;1.00;;;;;;4874842;29;21147;-71
2023/01/03 00:19:31;;;;;;;18.53;15.07;;;7.60;1.00;;;;;;4873686;29;20202;-65
2023/01/03 00:21:58;;;;;;;21.30;14.07;;;7.70;1.00;;;;;;4843040;29;20633;-69
2023/01/03 00:24:25;;;;;;;19.17;14.73;;;7.70;1.00;;;;;;4874360;29;20201;-65
2023/01/03 00:26:52;;;;;;;18.23;14.10;;;7.70;1.00;;;;;;4865341;29;20198;-64
2023/01/03 00:29:19;;;;;;;17.83;13.47;;;7.80;1.00;;;;;;4864415;29;20642;-64
2023/01/03 00:31:46;;;;;;;20.50;14.67;;;7.70;1.00;;;;;;4872591;29;20241;-62
2023/01/03 00:34:13;;;;;;;22.23;15.27;;;7.60;1.00;;;;;;4867491;29;20677;-62
2023/01/03 00:36:40;;;;;;;20.90;13.93;;;7.50;1.00;;;;;;4875309;29;20197;-63
2023/01/03 00:39:08;;;;;;;27.50;15.40;;;7.40;1.00;;;;;;4864543;29;20279;-67
2023/01/03 00:41:35;;;;;;;24.47;15.23;;;7.40;1.00;;;;;;4851153;29;20217;-63
2023/01/03 00:44:02;;;;;;;18.50;15.20;;;7.30;1.00;;;;;;4864353;29;20277;-63
2023/01/03 00:46:30;;;;;;;21.13;16.47;;;7.20;1.00;;;;;;4857626;29;20197;-73
2023/01/03 00:48:57;;;;;;;24.47;17.37;;;7.30;1.00;;;;;;4848599;29;20211;-62
2023/01/03 00:51:28;;;;;;;21.03;16.40;;;7.30;1.00;;;;;;4875214;29;20641;-65
2023/01/03 00:53:56;;;;;;;26.07;16.83;;;7.30;1.00;;;;;;4857310;29;20210;-63
2023/01/03 00:56:27;;;;;;;25.27;18.27;;;7.30;1.00;;;;;;4857191;29;20209;-63
2023/01/03 00:58:54;;;;;;;26.10;17.23;;;7.30;1.00;;;;;;4874850;29;20288;-66
2023/01/03 01:01:36;;;;;;;22.20;17.13;;;7.30;1.00;;;;;;4858200;29;20638;-64
2023/01/03 01:04:26;;;;;;;24.33;16.83;;;7.40;1.00;;;;;;4874015;29;20257;-63
2023/01/03 01:06:56;;;;;;;23.77;16.57;;;7.30;1.00;;;;;;4843283;29;20209;-63
2023/01/03 01:09:29;;;;;;;23.60;16.40;;;7.30;1.00;;;;;;4870747;29;20250;-63
2023/01/03 01:11:56;;;;;;;24.73;16.27;;;7.30;5.80;;;;;;4873542;29;20194;-63
2023/01/03 01:14:25;;;;;;;23.13;17.00;;;7.20;3.70;;;;;;4873309;29;20257;-63
2023/01/03 01:16:58;;;;;;;24.47;16.97;;;7.10;13.90;;;;;;4850915;29;20687;-69
2023/01/03 01:19:28;;;;;;;28.73;21.77;;;7.10;36.30;;;;;;4871258;29;20730;-65
2023/01/03 01:21:56;;;;;;;26.00;18.13;;;7.00;42.60;;;;;;4859188;29;20790;-62
2023/01/03 01:24:23;;;;;;;25.63;17.80;;;7.10;47.50;;;;;;4869008;29;20609;-64
2023/01/03 01:26:51;;;;;;;25.30;18.30;;;7.00;57.60;;;;;;4861200;29;20744;-62
2023/01/03 01:29:21;;;;;;;30.90;18.10;;;7.10;62.70;;;;;;4858831;29;20349;-63
2023/01/03 01:31:48;;;;;;;22.23;17.20;;;7.30;51.70;;;;;;4873051;29;20229;-62
2023/01/03 01:34:15;;;;;;;27.23;17.40;;;7.40;43.60;;;;;;4850771;29;20225;-61
2023/01/03 01:36:43;;;;;;;27.10;18.37;;;7.40;35.10;;;;;;4850830;29;20208;-62
2023/01/03 01:39:17;;;;;;;23.70;18.10;;;7.30;29.10;;;;;;4850615;29;20274;-61
2023/01/03 01:44:58;;;;;;;25.03;17.67;;;7.10;65.40;;;;;;4871938;29;20198;-64
2023/01/03 01:47:56;;;;;;;27.37;19.00;;;6.90;70.90;;;;;;4854661;29;20631;-61
2023/01/03 01:50:37;;;;;;;30.00;18.27;;;6.90;92.70;;;;;;4864116;29;20237;-63
2023/01/03 01:53:28;;;;;;;29.93;18.27;;;6.80;94.20;;;;;;4867557;29;20303;-62
2023/01/03 01:56:03;;;;;;;29.13;17.33;;;6.70;99.90;;;;;;4852335;29;20560;-61
2023/01/03 01:58:36;;;;;;;22.83;16.23;;;6.60;99.90;;;;;;4867540;29;20331;-65
2023/01/03 02:01:06;;;;;;;23.10;15.87;;;6.70;99.90;;;;;;4831833;29;20284;-64
2023/01/03 02:03:34;;;;;;;22.20;15.00;;;6.70;99.90;;;;;;4866949;29;20254;-65
2023/01/03 02:06:03;;;;;;;25.87;15.37;;;6.70;99.90;;;;;;4869111;29;20280;-63
2023/01/03 02:08:30;;;;;;;23.10;13.80;;;6.70;99.90;;;;;;4854065;29;20206;-62
2023/01/03 02:11:28;;;;;;;24.83;13.70;;;6.80;99.90;;;;;;4870870;29;20193;-63
2023/01/03 02:13:57;;;;;;;17.03;11.93;;;6.80;99.90;;;;;;4854423;29;20202;-64
2023/01/03 02:16:28;;;;;;;16.63;11.77;;;6.80;92.60;;;;;;4857772;29;20201;-64
2023/01/03 02:19:36;;;;;;;17.17;12.70;;;6.80;93.30;;;;;;4874358;29;20201;-64
2023/01/03 02:22:03;;;;;;;16.03;11.83;;;6.70;94.00;;;;;;4857669;29;20584;-65
2023/01/03 02:25:09;;;;;;;18.67;11.67;;;6.60;95.10;;;;;;4872715;29;20204;-64
2023/01/03 02:28:19;;;;;;;18.93;11.53;;;6.50;99.90;;;;;;4856637;29;20205;-65
2023/01/03 02:30:53;;;;;;;16.40;10.93;;;6.40;99.90;;;;;;4876032;29;20249;-64
2023/01/03 02:33:32;;;;;;;25.30;11.53;;;6.40;99.90;;;;;;4853426;29;20308;-64
2023/01/03 02:36:14;;;;;;;15.97;10.70;;;6.30;99.90;;;;;;4856977;29;20295;-64
2023/01/03 02:38:53;;;;;;;19.63;11.87;;;6.40;99.90;;;;;;4838703;29;20615;-64
2023/01/03 02:41:35;;;;;;;16.77;10.77;;;6.30;99.90;;;;;;4859864;29;20207;-62
2023/01/03 02:44:24;;;;;;;17.40;11.30;;;6.30;99.90;;;;;;4852233;29;20689;-64
2023/01/03 02:47:09;;;;;;;19.10;10.77;;;6.30;99.90;;;;;;4873165;29;20653;-64
2023/01/03 02:49:44;;;;;;;17.33;9.63;;;6.30;99.90;;;;;;4870000;29;20189;-62
2023/01/03 02:52:26;;;;;;;16.30;10.07;;;6.40;99.90;;;;;;4858473;29;20215;-62
2023/01/03 02:55:09;;;;;;;20.33;10.37;;;6.40;99.90;;;;;;4870519;29;20189;-60
2023/01/03 02:57:55;;;;;;;18.93;9.87;;;6.50;99.90;;;;;;4874668;29;20613;-65
2023/01/03 03:00:26;;;;;;;16.57;9.57;;;6.60;96.00;;;;;;4877710;29;20228;-62
2023/01/03 03:02:58;;;;;;;12.37;8.73;;;6.60;87.60;;;;;;4870474;29;20298;-62
2023/01/03 03:05:31;;;;;;;13.47;8.97;;;6.70;60.40;;;;;;4876083;29;20217;-65
2023/01/03 03:07:58;;;;;;;16.97;8.83;;;6.70;38.10;;;;;;4871510;29;20249;-63
2023/01/03 03:13:37;;;;;;;18.17;8.60;;;6.70;30.40;;;;;;4836800;29;20865;-64
2023/01/03 03:16:06;;;;;;;12.33;7.80;;;6.60;32.70;;;;;;4836537;29;20211;-63
2023/01/03 03:18:51;;;;;;;12.30;8.50;;;6.60;34.60;;;;;;4853707;29;20214;-63
2023/01/03 03:28:33;;;;;;;18.37;8.63;;;6.50;58.70;;;;;;4872905;29;20198;-63
2023/01/03 03:29:57;;;;;;;15.73;9.03;;;6.70;53.20;;;;;;4874972;29;20801;-63
2023/01/03 03:32:26;;;;;;;14.83;7.73;;;6.60;44.30;;;;;;4874820;29;20584;-63
2023/01/03 03:34:57;;;;;;;14.53;8.00;;;6.50;45.40;;;;;;4874942;29;20297;-65
2023/01/03 03:37:26;;;;;;;10.93;7.70;;;6.50;49.40;;;;;;4857594;29;20678;-63
2023/01/03 03:45:48;;;;;;;11.43;7.97;;;6.30;30.70;;;;;;4873341;29;20268;-64
2023/01/03 03:51:30;;;;;;;12.43;7.77;;;6.40;28.30;;;;;;4850478;29;20220;-66
2023/01/03 03:54:00;;;;;;;16.27;10.17;;;6.40;23.60;;;;;;4850420;29;20225;-68
2023/01/03 03:56:30;;;;;;;15.67;8.23;;;6.50;22.00;;;;;;4866648;29;20196;-71
2023/01/03 03:59:02;;;;;;;13.10;7.80;;;6.40;19.60;;;;;;4865822;29;20305;-63
2023/01/03 04:01:31;;;;;;;12.83;8.33;;;6.50;49.50;;;;;;4857945;29;20253;-63
2023/01/03 04:04:04;;;;;;;17.40;10.17;;;6.40;28.50;;;;;;4873280;29;20213;-63
2023/01/03 04:06:57;;;;;;;16.03;8.97;;;6.20;23.90;;;;;;4872610;29;20194;-66
2023/01/03 04:09:24;;;;;;;16.47;9.67;;;6.10;29.90;;;;;;4868092;29;20744;-66
2023/01/03 04:11:52;;;;;;;12.17;9.33;;;5.90;36.20;;;;;;4857337;29;20209;-64
2023/01/03 04:14:19;;;;;;;16.83;9.40;;;5.90;52.20;;;;;;4859030;29;20240;-64
2023/01/03 04:16:46;;;;;;;14.87;10.93;;;5.90;78.80;;;;;;4872312;29;21576;-63
2023/01/03 04:19:13;;;;;;;15.27;10.80;;;5.90;77.00;;;;;;4862933;29;20201;-64
2023/01/03 04:21:40;;;;;;;13.27;9.53;;;5.80;91.30;;;;;;4873826;29;20201;-64
2023/01/03 04:24:07;;;;;;;11.63;8.93;;;5.80;96.70;;;;;;4865074;29;20236;-64
2023/01/03 04:26:34;;;;;;;18.03;9.00;;;5.70;97.80;;;;;;4858360;29;20189;-64
2023/01/03 04:29:01;;;;;;;15.17;8.93;;;5.80;96.30;;;;;;4874103;29;20257;-64
2023/01/03 04:31:28;;;;;;;12.27;9.03;;;5.80;90.20;;;;;;4872647;29;20293;-64
2023/01/03 04:33:55;;;;;;;19.77;9.50;;;5.80;80.50;;;;;;4873950;29;20242;-64
2023/01/03 04:36:25;;;;;;;11.73;9.17;;;5.80;72.70;;;;;;4854846;29;20201;-68
2023/01/03 04:38:52;;;;;;;18.63;10.53;;;5.70;70.10;;;;;;4875293;29;20569;-74
2023/01/03 04:41:19;;;;;;;15.17;11.17;;;5.80;68.00;;;;;;4873572;29;20214;-64
2023/01/03 04:44:01;;;;;;;15.03;10.30;;;5.90;51.40;;;;;;4873151;29;20300;-64
2023/01/03 04:46:37;;;;;;;17.03;11.13;;;6.00;28.00;;;;;;4862523;29;20325;-63
2023/01/03 04:49:06;;;;;;;15.03;10.23;;;6.10;14.60;;;;;;4868721;29;20190;-63
2023/01/03 04:51:34;;;;;;;16.67;11.33;;;6.20;1.00;;;;;;4868831;29;20674;-64
2023/01/03 04:54:01;;;;;;;13.60;9.60;;;6.10;1.00;;;;;;4868760;29;20208;-64
2023/01/03 04:56:30;;;;;;;12.37;9.10;;;6.20;1.00;;;;;;4868878;29;21007;-64
2023/01/03 04:58:58;;;;;;;14.20;9.60;;;6.10;1.00;;;;;;4871959;29;20278;-64
2023/01/03 05:01:25;;;;;;;18.20;9.47;;;6.10;1.00;;;;;;4871774;29;20666;-65
2023/01/03 05:03:57;;;;;;;11.60;8.90;;;6.00;1.00;;;;;;4874739;29;20214;-63
2023/01/03 05:06:25;;;;;;;19.87;10.53;;;6.00;1.00;;;;;;4853295;29;20202;-63
2023/01/03 05:08:53;;;;;;;13.40;9.23;;;6.00;1.00;;;;;;4860554;29;20194;-63
2023/01/03 05:11:20;;;;;;;13.90;10.13;;;6.00;1.00;;;;;;4855091;29;20717;-64
2023/01/03 05:13:46;;;;;;;14.93;9.77;;;5.90;1.00;;;;;;4873301;29;20618;-64
2023/01/03 05:16:14;;;;;;;14.57;9.60;;;5.90;1.00;;;;;;4871971;29;20284;-64
2023/01/03 05:18:43;;;;;;;14.97;9.50;;;5.90;1.00;;;;;;4848259;29;20209;-64
2023/01/03 05:26:49;;;;;;;17.87;11.60;;;5.80;1.00;;;;;;4873356;29;20290;-64
2023/01/03 05:29:19;;;;;;;18.63;11.73;;;5.70;1.00;;;;;;4847583;29;20233;-69
2023/01/03 05:31:46;;;;;;;19.30;13.33;;;5.70;1.00;;;;;;4871885;29;20240;-64
2023/01/03 05:34:15;;;;;;;20.07;12.70;;;5.70;1.00;;;;;;4874042;29;20227;-64
2023/01/03 05:36:42;;;;;;;20.97;12.53;;;5.70;1.00;;;;;;4869195;29;20202;-64
2023/01/03 05:39:09;;;;;;;17.00;11.80;;;5.60;1.00;;;;;;4872966;29;20580;-64
2023/01/03 05:44:22;;;;;;;19.83;12.33;;;5.30;1.00;;;;;;4873117;29;20245;-65
2023/01/03 05:46:49;;;;;;;17.67;12.40;;;5.30;13.00;;;;;;4855280;29;20197;-64
2023/01/03 05:49:16;;;;;;;22.10;13.40;;;5.20;23.90;;;;;;4874252;29;20225;-67
2023/01/03 05:51:43;;;;;;;26.77;16.17;;;5.20;35.90;;;;;;4846624;29;20600;-65
2023/01/03 05:54:15;;;;;;;26.13;15.23;;;5.20;42.60;;;;;;4876647;29;20669;-64
2023/01/03 05:56:43;;;;;;;26.70;14.73;;;5.10;52.10;;;;;;4877525;29;20190;-63
2023/01/03 05:59:10;;;;;;;19.20;13.13;;;4.90;59.80;;;;;;4875677;29;20198;-64
2023/01/03 06:01:38;;;;;;;22.13;14.03;;;5.00;77.20;;;;;;4874453;29;20263;-64
2023/01/03 06:04:05;;;;;;;22.60;14.80;;;5.00;90.50;;;;;;4860645;29;20209;-62
2023/01/03 06:06:33;;;;;;;26.93;18.07;;;5.00;99.90;;;;;;4875837;29;20284;-64
2023/01/03 06:09:00;;;;;;;24.97;17.47;;;4.90;94.70;;;;;;4872260;29;20209;-64
2023/01/03 06:11:26;;;;;;;20.73;13.93;;;4.90;99.90;;;;;;4875631;29;20231;-64
2023/01/03 06:13:53;;;;;;;21.80;15.90;;;4.90;99.90;;;;;;4856120;29;20205;-64
2023/01/03 06:19:07;;;;;;;23.17;14.53;;;4.80;99.90;;;;;;4877035;29;20201;-66
2023/01/03 06:21:34;;;;;;;20.63;14.23;;;4.90;99.90;;;;;;4876429;29;20200;-64
2023/01/03 06:24:02;;;;;;;20.70;14.77;;;4.80;99.90;;;;;;4852031;29;20320;-64
2023/01/03 06:26:29;;;;;;;20.93;15.27;;;4.80;99.90;;;;;;4859512;29;20194;-64
2023/01/03 06:28:56;;;;;;;23.70;14.93;;;4.80;99.90;;;;;;4875007;29;20657;-63
2023/01/03 06:31:23;;;;;;;20.20;14.47;;;4.80;99.90;;;;;;4866459;29;20226;-74
2023/01/03 06:33:50;;;;;;;21.63;14.63;;;4.70;99.90;;;;;;4858705;29;20211;-76
2023/01/03 06:36:20;;;;;;;22.73;14.83;;;4.70;99.90;;;;;;4859714;29;20791;-64
2023/01/03 06:38:47;;;;;;;21.10;13.40;;;4.60;99.90;;;;;;4875134;29;20289;-64
2023/01/03 06:41:15;;;;;;;22.43;14.37;;;4.60;99.90;;;;;;4874832;29;20204;-63
2023/01/03 06:43:42;;;;;;;22.17;15.30;;;4.60;99.90;;;;;;4875229;29;20262;-65
2023/01/03 06:54:33;;;;;;;21.03;14.77;;;4.50;99.90;;;;;;4872700;29;20800;-64
2023/01/03 06:57:03;;;;;;;23.63;15.37;;;4.50;99.90;;;;;;4856708;29;20293;-67
2023/01/03 06:59:30;;;;;;;20.63;15.93;;;4.50;99.90;;;;;;4873142;29;20335;-64
2023/01/03 07:01:57;;;;;;;22.27;16.70;;;4.50;99.90;;;;;;4852854;29;20324;-62
2023/01/03 07:04:25;;;;;;;23.50;16.93;;;4.50;99.90;;;;;;4875981;29;20589;-64
2023/01/03 07:06:52;;;;;;;20.90;15.17;;;4.40;99.90;;;;;;4874391;29;20531;-62
2023/01/03 07:09:19;;;;;;;21.77;15.03;;;4.40;99.90;;;;;;4873562;29;20194;-62
2023/01/03 07:11:47;;;;;;;28.63;17.47;;;4.40;99.90;;;;;;4877009;29;20685;-62
2023/01/03 07:14:14;;;;;;;21.03;15.03;;;4.30;99.90;;;;;;4874156;29;20637;-64
2023/01/03 07:16:43;;;;;;;21.17;14.67;;;4.20;99.90;;;;;;4873562;29;20224;-64
2023/01/03 07:19:13;;;;;;;21.00;14.20;;;4.00;99.90;;;;;;4866320;29;20237;-62
2023/01/03 07:21:40;;;;;;;21.70;14.60;;;3.80;99.90;;;;;;4866594;29;20237;-65
2023/01/03 07:24:11;;;;;;;23.57;16.07;;;3.70;99.90;;;;;;4874196;29;20280;-62
2023/01/03 07:26:39;;;;;;;26.07;16.27;;;3.70;99.90;;;;;;4858606;29;20189;-68
2023/01/03 07:29:08;;;;;;;24.70;15.37;;;3.60;99.90;;;;;;4876973;29;20201;-63
2023/01/03 07:31:39;;;;;;;24.60;16.30;;;3.60;99.90;;;;;;4851454;29;20232;-65
2023/01/03 07:34:06;;;;;;;24.90;17.33;;;3.60;99.90;;;;;;4857732;29;20209;-71
2023/01/03 07:36:33;;;;;;;23.63;16.83;;;3.60;99.90;;;;;;4857851;29;20284;-65
2023/01/03 07:39:00;;;;;;;24.67;16.67;;;3.60;99.90;;;;;;4875400;29;20678;-63
2023/01/03 07:43:35;;;;;;;21.97;16.93;;;3.60;99.90;;;;;;4874465;29;20277;-63
2023/01/03 07:44:14;;;;;;;27.57;16.27;;;3.60;1.00;;;;;;4875606;29;20245;-62
2023/01/03 07:46:41;;;;;;;26.87;17.57;;;3.70;1.00;;;;;;4875363;29;20221;-61
2023/01/03 07:49:08;;;;;;;24.63;17.57;;;3.70;1.00;;;;;;4865237;29;20205;-62
2023/01/03 07:51:38;;;;;;;25.50;17.23;;;3.80;1.00;;;;;;4875665;29;20202;-61
2023/01/03 07:54:06;;;;;;;24.37;17.27;;;3.80;1.00;;;;;;4874121;29;20293;-61
2023/01/03 07:56:33;;;;;;;25.70;18.30;;;3.80;1.00;;;;;;4842662;29;20207;-65
2023/01/03 07:59:00;;;;;;;25.00;16.43;;;3.90;1.00;;;;;;4875613;29;20733;-61
2023/01/03 08:01:29;;;;;;;26.07;18.20;;;4.00;1.00;;;;;;4873180;29;20653;-62
2023/01/03 08:03:56;;;;;;;29.27;17.73;;;4.10;99.90;;;;;;4875385;29;21122;-61
2023/01/03 08:06:23;;;;;;;23.40;16.70;;;4.30;99.90;;;;;;4875122;29;20221;-62
2023/01/03 08:14:23;;;;;;;17.87;14.10;;;4.50;99.90;;;;;;4875394;29;20681;-62
2023/01/03 08:16:53;;;;;;;18.23;14.77;;;4.60;99.90;;;;;;4858989;29;20585;-62
2023/01/03 08:19:20;;;;;;;20.97;14.17;;;4.60;99.90;;;;;;4874789;29;21261;-65
2023/01/03 08:21:47;;;;;;;21.40;14.43;;;4.70;99.90;;;;;;4872862;29;20240;-63
2023/01/03 08:24:14;;;;;;;18.27;13.17;;;4.70;99.90;;;;;;4858207;29;20277;-64
2023/01/03 08:26:41;;;;;;;14.53;11.83;;;4.80;99.90;;;;;;4870534;29;20196;-64
2023/01/03 08:29:08;;;;;;;19.13;12.03;;;5.00;99.90;;;;;;4871337;29;21046;-63
2023/01/03 08:31:40;;;;;;;15.07;11.70;;;5.10;99.90;;;;;;4869218;29;20241;-71
2023/01/03 08:34:10;;;;;;;14.60;10.97;;;5.20;99.90;;;;;;4873024;29;20201;-61
2023/01/03 08:36:56;;;;;;;15.77;11.67;;;5.30;99.90;;;;;;4873119;29;20859;-72
2023/01/03 08:39:27;;;;;;;17.20;10.90;;;5.30;94.20;;;;;;4872821;29;20225;-63
2023/01/03 08:42:00;;;;;;;20.50;10.80;;;5.40;69.60;;;;;;4871682;29;20193;-64
2023/01/03 08:44:27;;;;;;;15.33;11.13;;;5.50;43.10;;;;;;4873003;29;20223;-66
2023/01/03 08:46:56;;;;;;;14.53;9.40;;;5.60;14.90;;;;;;4870754;29;20198;-63
2023/01/03 08:49:24;;;;;;;18.53;9.87;;;5.60;1.00;;;;;;4868795;29;20201;-64
2023/01/03 08:51:51;;;;;;;14.63;10.00;;;5.50;1.00;;;;;;4867906;29;20245;-65
2023/01/03 08:54:18;;;;;;;15.53;10.10;;;5.40;1.00;;;;;;4869217;29;20208;-62
2023/01/03 08:56:45;;;;;;;17.13;9.53;;;5.30;1.00;;;;;;4860128;29;20201;-66
2023/01/03 08:59:12;;;;;;;14.90;11.23;;;5.20;1.00;;;;;;4870797;29;20250;-64
2023/01/03 09:01:40;;;;;;;16.10;9.73;;;5.20;1.00;;;;;;4871040;29;20229;-62
2023/01/03 09:04:07;;;;;;;14.90;10.10;;;5.20;1.00;;;;;;4869861;29;20229;-62
2023/01/03 09:06:34;;;;;;;17.73;10.23;;;5.20;1.60;;;;;;4870923;29;20255;-62
2023/01/03 09:09:05;;;;;;;14.43;10.67;;;5.20;3.20;;;;;;4867987;29;20190;-64
2023/01/03 09:11:32;;;;;;;14.40;9.80;;;5.30;1.00;;;;;;4868638;29;20200;-64
2023/01/03 09:13:59;;;;;;;15.70;10.03;;;5.30;1.00;;;;;;4871816;29;20733;-63
2023/01/03 09:16:27;;;;;;;12.97;9.53;;;5.60;1.00;;;;;;4851475;29;21061;-63
2023/01/03 09:18:54;;;;;;;11.93;9.00;;;6.00;1.00;;;;;;4873973;29;20202;-67
2023/01/03 09:21:21;;;;;;;12.37;8.27;;;6.60;1.00;;;;;;4851369;29;20708;-63
2023/01/03 09:23:48;;;;;;;10.13;7.40;;;6.80;1.00;;;;;;4858121;29;20332;-62
2023/01/03 09:26:15;;;;;;;12.03;5.53;;;7.50;1.00;;;;;;4858570;29;20214;-64
2023/01/03 09:28:41;;;;;;;8.47;4.97;;;11.50;1.00;;;;;;4831865;29;20198;-64
2023/01/03 09:31:08;;;;;;;8.27;4.60;;;12.60;1.00;;;;;;4858239;29;20340;-65
2023/01/03 09:33:36;;;;;;;8.50;4.83;;;11.80;1.00;;;;;;4837430;29;20296;-65
2023/01/03 09:36:03;;;;;;;11.47;5.23;;;10.40;1.00;;;;;;4845328;29;20241;-64
2023/01/03 09:38:30;;;;;;;10.40;5.57;;;9.60;1.00;;;;;;4871205;29;20557;-63
2023/01/03 09:41:16;;;;;;;12.83;6.00;;;8.80;1.00;;;;;;4857153;29;20214;-63
2023/01/03 09:43:46;;;;;;;10.27;5.70;;;8.30;1.00;;;;;;4855094;29;20225;-63
2023/01/03 09:46:24;;;;;;;8.00;5.20;;;8.10;1.00;;;;;;4855829;29;20201;-63
2023/01/03 09:48:56;;;;;;;9.43;5.27;;;8.20;1.00;;;;;;4870724;29;20205;-63
2023/01/03 10:03:43;;;;;;;9.80;4.90;;;8.70;1.00;;;;;;4869087;29;20231;-63
2023/01/03 10:06:26;;;;;;;5.13;4.10;;;9.00;1.00;;;;;;4865725;29;20213;-63
2023/01/03 10:09:22;;;;;;;5.17;2.80;;;13.60;1.00;;;;;;4872959;29;20197;-67
2023/01/03 10:12:06;;;;;;;5.53;2.53;;;15.30;1.00;;;;;;4868660;29;20549;-63
2023/01/03 10:15:06;;;;;;;6.25;3.25;;;15.00;1.00;;;;;;4853132;29;20899;-63
2023/01/03 10:17:46;;;;;;;6.13;2.80;;;12.60;1.00;;;;;;4855133;29;20210;-63
2023/01/03 10:20:31;;;;;;;6.07;2.53;;;11.20;1.00;;;;;;4869337;29;20198;-63
2023/01/03 10:22:59;;;;;;;7.30;2.90;;;10.30;1.00;;;;;;4872370;29;20218;-63
2023/01/03 10:25:28;;;;;;;4.93;2.50;;;10.00;1.00;;;;;;4851923;29;20225;-63
2023/01/03 10:28:05;;;;;;;7.20;2.93;;;9.80;1.00;;;;;;4872808;29;20250;-63
2023/01/03 10:30:58;;;;;;;5.80;2.50;;;9.70;1.00;;;;;;4870815;29;20252;-63
2023/01/03 10:33:42;;;;;;;5.93;2.50;;;9.70;1.00;;;;;;4832951;29;20689;-63
2023/01/03 10:36:10;;;;;;;4.83;2.63;;;9.60;1.00;;;;;;4874619;29;20205;-64
2023/01/03 10:38:38;;;;;;;5.83;2.57;;;9.40;1.00;;;;;;4871344;29;20681;-63
2023/01/03 10:41:28;;;;;;;5.83;2.93;;;9.50;1.00;;;;;;4848421;29;20288;-63
2023/01/03 10:44:02;;;;;;;7.50;2.67;;;9.50;1.00;;;;;;4859341;29;20225;-63
2023/01/03 10:46:29;;;;;;;3.57;2.30;;;9.50;1.00;;;;;;4857007;29;20617;-63
2023/01/03 10:49:16;;;;;;;6.73;2.80;;;9.50;1.00;;;;;;4873155;29;20742;-63
2023/01/03 10:52:17;;;;;;;5.80;2.13;;;10.00;1.00;;;;;;4872082;29;20185;-63
2023/01/03 10:55:00;;;;;;;2.97;1.90;;;11.30;1.00;;;;;;4873077;29;20202;-63
2023/01/03 10:57:52;;;;;;;4.23;1.70;;;11.30;1.00;;;;;;4837787;29;20210;-63
2023/01/03 11:00:22;;;;;;;3.87;1.90;;;11.60;1.00;;;;;;4865461;29;20293;-64
2023/01/03 11:02:50;;;;;;;5.37;2.00;;;11.20;1.00;;;;;;4858078;29;20229;-63
2023/01/03 11:05:21;;;;;;;6.03;2.20;;;10.50;1.00;;;;;;4856742;29;20638;-64
2023/01/03 11:07:57;;;;;;;4.00;2.07;;;10.10;1.00;;;;;;4870595;29;20241;-64
2023/01/03 11:10:33;;;;;;;4.20;1.93;;;10.00;1.00;;;;;;4870842;29;20210;-63
2023/01/03 11:13:29;;;;;;;3.53;2.17;;;10.10;1.00;;;;;;4839430;29;20233;-63
2023/01/03 11:15:58;;;;;;;3.27;2.10;;;10.90;1.00;;;;;;4848782;29;20213;-64
2023/01/03 11:18:27;;;;;;;5.03;1.90;;;12.80;1.00;;;;;;4867072;29;20194;-64
2023/01/03 11:21:22;;;;;;;6.53;2.17;;;16.20;1.00;;;;;;4853468;29;20209;-65
2023/01/03 11:24:22;;;;;;;5.10;1.88;;;18.10;1.00;;;;;;4868046;29;20272;-68
2023/01/03 11:26:50;;;;;;;3.40;1.70;;;17.20;1.00;;;;;;4868432;29;20209;-65
2023/01/03 11:29:43;;;;;;;5.35;1.63;;;17.30;1.00;;;;;;4867234;29;20264;-65
2023/01/03 11:32:30;;;;;;;8.60;2.20;;;16.40;1.00;;;;;;4834678;29;20233;-64
2023/01/03 11:35:12;;;;;;;3.85;1.73;;;17.90;1.00;;;;;;4864618;29;20201;-64
2023/01/03 11:37:55;;;;;;;4.93;1.88;;;17.20;1.00;;;;;;4852869;29;20267;-64
2023/01/03 11:40:47;;;;;;;2.95;1.77;;;15.80;1.00;;;;;;4844778;29;20392;-64
2023/01/03 11:43:38;;;;;;;4.40;2.17;;;15.80;1.00;;;;;;4869570;29;20684;-63
2023/01/03 11:46:30;;;;;;;5.18;1.70;;;18.00;1.00;;;;;;4870595;29;20218;-63
2023/01/03 11:49:22;;;;;;;3.30;1.88;;;17.60;1.00;;;;;;4852018;29;20201;-64
2023/01/03 11:52:04;;;;;;;3.22;1.60;;;16.70;1.00;;;;;;4850926;29;20704;-63
2023/01/03 11:54:37;;;;;;;3.08;1.88;;;13.20;1.00;;;;;;4868671;29;20235;-63
2023/01/03 11:57:18;;;;;;;7.10;1.80;;;11.70;1.00;;;;;;4870852;29;20189;-63
2023/01/03 11:59:58;;;;;;;3.73;1.50;;;11.50;1.00;;;;;;4857863;29;20189;-64
2023/01/03 12:02:47;;;;;;;3.73;1.80;;;11.20;1.00;;;;;;4873499;29;20197;-63
2023/01/03 12:05:35;;;;;;;4.30;1.83;;;10.90;1.00;;;;;;4873597;29;20216;-64
2023/01/03 12:08:33;;;;;;;3.67;1.70;;;10.70;1.00;;;;;;4857628;29;20213;-65
2023/01/03 12:11:15;;;;;;;3.97;1.97;;;10.60;1.00;;;;;;4874187;29;20202;-64
2023/01/03 12:13:58;;;;;;;3.77;1.97;;;10.60;1.00;;;;;;4855580;29;20202;-66
2023/01/03 12:16:58;;;;;;;7.67;2.13;;;10.70;1.00;;;;;;4870921;29;20202;-64
2023/01/03 12:19:40;;;;;;;3.57;1.70;;;10.50;1.00;;;;;;4868893;29;20292;-64
2023/01/03 12:22:29;;;;;;;4.93;1.80;;;10.40;1.00;;;;;;4853273;29;20206;-63
2023/01/03 12:25:13;;;;;;;3.00;2.00;;;10.40;1.00;;;;;;4871146;29;20222;-63
2023/01/03 12:27:47;;;;;;;3.97;1.63;;;10.20;1.00;;;;;;4874710;29;20687;-63
2023/01/03 12:30:37;;;;;;;4.90;2.13;;;10.20;1.00;;;;;;4870187;29;20721;-63
2023/01/03 12:33:30;;;;;;;6.03;1.90;;;10.30;1.00;;;;;;4872325;29;20674;-64
2023/01/03 12:36:22;;;;;;;5.30;1.80;;;10.30;1.00;;;;;;4855756;29;20210;-64
2023/01/03 12:39:04;;;;;;;6.30;2.10;;;10.30;1.00;;;;;;4850938;29;20201;-64
2023/01/03 12:41:37;;;;;;;5.87;2.10;;;10.30;1.00;;;;;;4865118;29;20202;-63
2023/01/03 12:44:15;;;;;;;5.50;2.07;;;10.30;1.00;;;;;;4848838;29;20331;-64
2023/01/03 12:46:49;;;;;;;4.67;1.83;;;10.30;1.00;;;;;;4856100;29;20212;-63
2023/01/03 12:49:22;;;;;;;4.07;2.03;;;10.20;1.00;;;;;;4874225;29;20662;-64
2023/01/03 12:51:49;;;;;;;5.87;2.23;;;10.20;1.00;;;;;;4872323;29;20246;-64
2023/01/03 12:54:21;;;;;;;18.70;9.93;;;10.20;1.00;;;;;;4855996;29;20198;-64
2023/01/03 12:57:37;;;;;;;6.83;2.67;;;10.20;1.00;;;;;;4868819;29;20202;-64
2023/01/03 13:00:46;;;;;;;6.03;2.70;;;10.40;1.00;;;;;;4814834;29;20234;-64
2023/01/03 13:03:29;;;;;;;6.33;2.67;;;10.60;1.00;;;;;;4840816;29;20237;-65
2023/01/03 13:06:17;;;;;;;8.10;3.00;;;11.00;1.00;;;;;;4849731;29;20237;-67
2023/01/03 13:08:50;;;;;;;7.53;4.07;;;11.30;1.00;;;;;;4851623;29;20229;-69
2023/01/03 13:11:26;;;;;;;5.60;2.37;;;11.40;1.00;;;;;;4868700;29;20709;-66
2023/01/03 13:14:05;;;;;;;5.60;2.67;;;11.20;1.00;;;;;;4842297;29;20664;-65
2023/01/03 13:16:35;;;;;;;14.53;5.90;;;11.20;1.00;;;;;;4850913;29;20209;-65
2023/01/03 13:19:22;;;;;;;7.97;2.20;;;11.20;1.00;;;;;;4841833;29;20746;-67
2023/01/03 13:21:50;;;;;;;4.13;2.13;;;10.90;1.00;;;;;;4827186;29;20234;-68
2023/01/03 13:24:40;;;;;;;8.90;2.67;;;10.80;1.00;;;;;;4861468;29;20250;-67
2023/01/03 13:27:19;;;;;;;6.27;2.67;;;10.60;1.00;;;;;;4860416;29;20216;-68
2023/01/03 13:29:49;;;;;;;4.43;2.20;;;10.60;1.00;;;;;;4877648;29;20280;-67
2023/01/03 13:32:22;;;;;;;4.27;1.80;;;10.60;1.00;;;;;;4843444;29;20212;-67
2023/01/03 13:34:55;;;;;;;4.10;2.20;;;10.60;1.00;;;;;;4875715;29;20311;-67
2023/01/03 13:37:28;;;;;;;5.43;2.07;;;10.50;1.00;;;;;;4874962;29;20717;-66
2023/01/03 13:40:29;;;;;;;5.30;2.17;;;10.50;1.00;;;;;;4859007;29;20209;-67
2023/01/03 13:43:20;;;;;;;4.97;1.90;;;10.40;1.00;;;;;;4838741;29;20225;-67
2023/01/03 13:45:48;;;;;;;8.20;2.30;;;10.50;1.00;;;;;;4857919;29;20724;-66
2023/01/03 13:48:29;;;;;;;3.73;1.73;;;10.40;1.00;;;;;;4874015;29;20198;-66
2023/01/03 13:51:04;;;;;;;4.87;2.10;;;10.40;1.00;;;;;;4872739;29;20257;-72
2023/01/03 13:53:38;;;;;;;5.03;2.40;;;10.40;1.00;;;;;;4874340;29;20229;-71
2023/01/03 13:56:14;;;;;;;6.17;2.23;;;10.40;1.00;;;;;;4873630;29;21281;-65
2023/01/03 13:59:27;;;;;;;4.83;2.50;;;10.50;1.00;;;;;;4873317;29;20205;-65
2023/01/03 14:02:07;;;;;;;5.27;2.00;;;10.60;1.00;;;;;;4841501;29;20705;-65
2023/01/03 14:04:53;;;;;;;3.53;1.87;;;10.50;1.00;;;;;;4842731;29;20244;-65
2023/01/03 14:07:29;;;;;;;3.03;1.60;;;10.40;1.00;;;;;;4847971;29;20198;-65
2023/01/03 14:10:18;;;;;;;4.93;1.80;;;10.40;1.00;;;;;;4860238;29;20194;-70
2023/01/03 14:12:47;;;;;;;4.93;1.70;;;10.50;1.00;;;;;;4878791;29;20213;-69
2023/01/03 14:15:18;;;;;;;9.60;2.70;;;10.60;1.00;;;;;;4846112;29;20631;-65
2023/01/03 14:17:59;;;;;;;4.70;2.10;;;10.50;1.00;;;;;;4877522;29;20200;-65
2023/01/03 14:20:31;;;;;;;7.00;2.30;;;10.40;1.00;;;;;;4878104;29;20660;-64
2023/01/03 14:23:04;;;;;;;5.60;2.00;;;10.30;1.00;;;;;;4859966;29;20206;-65
2023/01/03 14:25:51;;;;;;;4.10;2.00;;;10.20;1.00;;;;;;4877906;29;20210;-64